Airfield :
LOGIN :

Register | Disclaimer

   EN    FR    IT 

 










Legend :    VFR   Marginal VFR   IFR   Intensive IFR   Very Intensive IFR
Visi :
Ceiling :
>= 8 km
>= 3000ft
5 to 8 km
1000 to 3000 ft
1500m to 5 km
500 to 1000 ft
800 to 1500m
200 to 500 ft
< 800m
< 200 ft
Symbols :   Thunderstorms  Fog  Heavy snow  Heavy precipitations  Wind > 20 kt
SIGMETs :     Misc.  Thunderstorms  Icing  Turbulence  Mountain Waves  Volcanic Ashes







- Airport Elevation : 291 ft
- IATA code : ORY
- Download approach charts


LFPO - Paris-Orly

CURRENT METAR :
  • 220400Z 36006KT 9999 SCT007 BKN056 13/12 Q1019 TEMPO BKN007

EXPIRED METARs :
  • 220330Z 35007KT 320V020 9999 FEW007 BKN053 13/12 Q1019 NOSIG
  • 220300Z 30004KT 9999 FEW007 BKN120 11/10 Q1019 NOSIG
  • 220230Z 33003KT CAVOK 10/08 Q1019 NOSIG
  • 220200Z 29003KT CAVOK 09/08 Q1019 NOSIG
  • 220130Z 29002KT CAVOK 10/08 Q1019 NOSIG

TAF AMD TAF LFPO
Valid from the 22 at 02:00 until the 23 at 06:00 UTC


220203Z 2202/2306 34005KT CAVOK
PROB40
TEMPO 2202/2208 BKN012
PROB30 2202/2208 -RA BKN008
BECMG 2208/2210 BKN020
BECMG 2210/2212 SCT030
BECMG 2214/2216 CAVOK
TEMPO 2302/2306 4000 BR
PROB30
TEMPO 2303/2306 0800 BCFG
ATIS : +33 1 49 75 65 80
No reported NOTAMs for that airfield.



MET'MAP, your aeronautical weather chart ! - Copyright ORBIFLY December 2007 - Disclaimer

ORBIFLY MET'MAP TEAM :

Programming & Development : Alexandra Zaïnal
Concept & Development : Baudouin d'Aumeries
Co-Development & Prog : Marc-Olivier Méhu
Technical & hardware support : Manuel Goepfert

Contact : metmap@orbifly.com




SOURCES & CREDITS :

   NOAA